Time;durP1;ratioP1;P1;durP2;ratioP2;P2;SDS_P1;SDS_P2;PMS_P1;PMS_P2;Temp;Humidity;BMP_temperature;BMP_pressure;BME280_temperature;BME280_humidity;BME280_pressure;Samples;Min_cycle;Max_cycle;Signal;HPM_P1;HPM_P2
2023/05/09 00:01:11;;;;;;;11.53;10.53;;;;;;;14.94;100.00;101797.44;5017878;28;20184;-69
2023/05/09 00:03:37;;;;;;;11.27;10.27;;;;;;;14.72;100.00;101758.94;5019657;28;20192;-69
2023/05/09 00:06:04;;;;;;;11.20;10.20;;;;;;;14.84;100.00;101792.41;5021691;28;20443;-69
2023/05/09 00:08:29;;;;;;;11.43;10.43;;;;;;;15.00;100.00;101797.44;5023718;28;20795;-69
2023/05/09 00:10:54;;;;;;;11.47;10.43;;;;;;;14.91;100.00;101804.06;5021969;28;20455;-69
2023/05/09 00:13:20;;;;;;;11.47;10.37;;;;;;;14.94;100.00;101784.75;5018918;28;20548;-69
2023/05/09 00:15:45;;;;;;;11.07;10.07;;;;;;;14.62;100.00;101753.94;5018934;28;20242;-69
2023/05/09 00:18:13;;;;;;;12.10;11.00;;;;;;;14.27;100.00;101697.31;5018203;28;20670;-69
2023/05/09 00:20:39;;;;;;;13.70;12.30;;;;;;;14.52;100.00;101753.47;5019953;28;20192;-69
2023/05/09 00:23:06;;;;;;;12.37;11.27;;;;;;;14.60;100.00;101750.59;5018446;28;20431;-69
2023/05/09 00:25:32;;;;;;;12.17;11.07;;;;;;;14.77;100.00;101759.97;5017950;28;20458;-69
2023/05/09 00:27:57;;;;;;;11.73;10.63;;;;;;;14.69;100.00;101754.75;5018462;28;20439;-69
2023/05/09 00:30:23;;;;;;;12.10;11.00;;;;;;;14.71;100.00;101743.78;5016821;28;20819;-69
2023/05/09 00:32:49;;;;;;;15.67;11.60;;;;;;;14.55;100.00;101721.53;5019767;28;20551;-69
2023/05/09 00:35:14;;;;;;;11.13;10.13;;;;;;;14.71;100.00;101731.09;5016681;28;20209;-69
2023/05/09 00:37:40;;;;;;;13.10;11.87;;;;;;;14.59;100.00;101738.13;5019010;28;20262;-69
2023/05/09 00:40:06;;;;;;;12.53;11.33;;;;;;;14.73;100.00;101736.31;5019130;28;20912;-69
2023/05/09 00:42:32;;;;;;;11.77;10.73;;;;;;;14.65;100.00;101740.03;5015972;28;20180;-68
2023/05/09 00:44:57;;;;;;;11.93;10.83;;;;;;;14.63;100.00;101736.69;5013252;28;20570;-69
2023/05/09 00:47:23;;;;;;;12.07;10.93;;;;;;;14.79;100.00;101721.97;5018015;28;20223;-69
2023/05/09 00:49:49;;;;;;;11.87;10.77;;;;;;;14.56;100.00;101692.66;5018771;28;20181;-69
2023/05/09 00:52:16;;;;;;;12.60;10.70;;;;;;;14.49;100.00;101692.56;5016413;28;20197;-69
2023/05/09 00:54:41;;;;;;;10.87;9.97;;;;;;;14.65;100.00;101686.84;5023451;28;20944;-69
2023/05/09 00:57:07;;;;;;;11.67;10.63;;;;;;;14.69;100.00;101700.75;5020494;28;20475;-69
2023/05/09 00:59:33;;;;;;;12.90;11.63;;;;;;;14.47;100.00;101694.69;5022081;28;20273;-69
2023/05/09 01:01:59;;;;;;;11.67;10.60;;;;;;;14.14;100.00;101691.84;5024611;28;20510;-69
2023/05/09 01:04:25;;;;;;;11.60;10.50;;;;;;;14.03;100.00;101639.34;5019602;28;20528;-69
2023/05/09 01:07:12;;;;;;;12.00;11.00;;;;;;;14.31;100.00;101665.34;5020957;28;20204;-69
2023/05/09 01:10:15;;;;;;;15.20;10.30;;;;;;;14.51;100.00;101658.13;5023839;28;20188;-70
2023/05/09 01:12:53;;;;;;;11.53;10.53;;;;;;;14.17;100.00;101630.22;5019022;28;20450;-70
2023/05/09 01:15:34;;;;;;;11.40;10.40;;;;;;;14.61;100.00;101644.25;5017459;28;20450;-69
2023/05/09 01:18:07;;;;;;;11.43;10.37;;;;;;;14.36;100.00;101620.53;5022813;28;21315;-70
2023/05/09 01:20:35;;;;;;;12.40;11.30;;;;;;;14.49;100.00;101635.88;5021684;28;20497;-69
2023/05/09 01:23:35;;;;;;;11.43;10.33;;;;;;;14.47;100.00;101641.50;5020684;28;20427;-69
2023/05/09 01:26:05;;;;;;;11.40;10.33;;;;;;;14.44;100.00;101641.91;5017508;28;20824;-70
2023/05/09 01:28:45;;;;;;;13.07;11.73;;;;;;;14.36;100.00;101623.22;5017919;28;20467;-69
2023/05/09 01:31:11;;;;;;;13.97;12.57;;;;;;;14.62;100.00;101637.81;5016926;28;20560;-70
2023/05/09 01:33:39;;;;;;;12.80;11.60;;;;;;;14.62;100.00;101630.56;5016313;28;20517;-69
2023/05/09 01:36:16;;;;;;;13.17;11.97;;;;;;;14.63;100.00;101624.09;5017274;28;20826;-69
2023/05/09 01:38:46;;;;;;;12.87;11.67;;;;;;;14.54;100.00;101603.75;5016622;28;20439;-68
2023/05/09 01:41:15;;;;;;;12.40;11.20;;;;;;;14.52;100.00;101603.13;5017959;28;20428;-68
2023/05/09 01:43:44;;;;;;;14.27;12.90;;;;;;;14.02;100.00;101565.66;5017609;28;20434;-68
2023/05/09 01:46:11;;;;;;;13.17;11.93;;;;;;;14.35;100.00;101634.19;5019553;28;20483;-68
2023/05/09 01:48:40;;;;;;;12.30;11.03;;;;;;;14.43;100.00;101625.91;5016553;28;20447;-68
2023/05/09 01:51:06;;;;;;;12.93;11.83;;;;;;;14.56;100.00;101631.38;5012428;28;20507;-68
2023/05/09 01:53:34;;;;;;;13.53;12.30;;;;;;;14.35;100.00;101624.25;5016165;28;20452;-68
2023/05/09 01:56:03;;;;;;;13.20;12.00;;;;;;;14.46;100.00;101620.09;5015984;28;20523;-68
2023/05/09 01:58:30;;;;;;;13.10;11.73;;;;;;;14.25;100.00;101592.25;5016697;28;20446;-68
2023/05/09 02:00:56;;;;;;;12.73;11.53;;;;;;;14.33;100.00;101623.63;5017277;28;20505;-67
2023/05/09 02:03:24;;;;;;;12.17;11.07;;;;;;;14.29;100.00;101632.31;5017453;28;20871;-68
2023/05/09 02:05:51;;;;;;;12.97;11.73;;;;;;;14.32;100.00;101626.53;5014146;28;20963;-68
2023/05/09 02:08:20;;;;;;;12.80;11.60;;;;;;;14.40;100.00;101623.63;5015236;28;20539;-69
2023/05/09 02:10:47;;;;;;;13.47;12.17;;;;;;;14.10;100.00;101602.41;5014575;28;20454;-69
2023/05/09 02:13:13;;;;;;;13.23;12.03;;;;;;;14.27;100.00;101623.63;5017761;28;20434;-68
2023/05/09 02:15:39;;;;;;;14.20;12.90;;;;;;;13.98;100.00;101588.69;5013463;28;20471;-68
2023/05/09 02:18:04;;;;;;;14.37;12.97;;;;;;;13.77;100.00;101556.47;5017472;28;20253;-68
2023/05/09 02:20:30;;;;;;;16.47;14.97;;;;;;;14.14;100.00;101600.94;5019689;28;20924;-68
2023/05/09 02:22:55;;;;;;;16.90;15.30;;;;;;;14.06;100.00;101614.66;5019957;28;20223;-69
2023/05/09 02:25:22;;;;;;;15.50;14.07;;;;;;;14.02;100.00;101607.97;5021502;28;20557;-68
2023/05/09 02:27:48;;;;;;;16.83;15.23;;;;;;;13.92;100.00;101623.72;5020642;28;20189;-68
2023/05/09 02:30:23;;;;;;;17.07;15.57;;;;;;;13.57;100.00;101600.34;5020374;28;20518;-68
2023/05/09 02:32:50;;;;;;;15.80;14.20;;;;;;;14.00;100.00;101631.63;5020076;28;20569;-68
2023/05/09 02:35:17;;;;;;;15.83;14.43;;;;;;;13.88;100.00;101595.47;5020077;28;20462;-69
2023/05/09 02:37:45;;;;;;;16.13;14.73;;;;;;;14.04;100.00;101608.63;5017646;28;20436;-69
2023/05/09 02:40:11;;;;;;;16.33;14.73;;;;;;;13.85;100.00;101580.53;5019925;28;20917;-69
2023/05/09 02:42:36;;;;;;;16.30;14.63;;;;;;;14.15;100.00;101615.28;5020892;28;20430;-69
2023/05/09 02:45:02;;;;;;;16.60;15.10;;;;;;;14.13;100.00;101617.34;5021195;28;20958;-69
2023/05/09 02:47:27;;;;;;;18.60;14.87;;;;;;;13.95;100.00;101605.25;5022043;28;20654;-68
2023/05/09 02:49:53;;;;;;;15.93;14.40;;;;;;;14.03;100.00;101617.75;5021626;28;20188;-68
2023/05/09 02:52:18;;;;;;;17.10;15.47;;;;;;;13.86;100.00;101600.25;5020185;28;20242;-68
2023/05/09 02:54:44;;;;;;;16.80;15.20;;;;;;;13.93;100.00;101612.72;5019700;28;20242;-68
2023/05/09 02:57:10;;;;;;;17.17;15.53;;;;;;;13.43;100.00;101531.25;5020149;28;20227;-69
2023/05/09 02:59:35;;;;;;;16.33;14.80;;;;;;;14.06;100.00;101601.16;5021169;28;20442;-68
2023/05/09 03:02:00;;;;;;;16.73;15.03;;;;;;;13.95;100.00;101577.47;5020607;28;20187;-69
2023/05/09 03:04:26;;;;;;;16.07;14.60;;;;;;;14.10;100.00;101591.59;5018142;28;20191;-68
2023/05/09 03:06:51;;;;;;;15.70;14.33;;;;;;;14.08;100.00;101587.44;5020630;28;20737;-69
2023/05/09 03:09:17;;;;;;;15.33;13.93;;;;;;;13.69;100.00;101537.78;5018691;28;20191;-69
2023/05/09 03:11:42;;;;;;;15.73;14.33;;;;;;;13.93;100.00;101556.09;5019786;28;20212;-69
2023/05/09 03:14:09;;;;;;;14.40;13.10;;;;;;;14.01;100.00;101574.78;5020532;28;20197;-69
2023/05/09 03:16:35;;;;;;;15.00;13.50;;;;;;;14.01;100.00;101547.81;5020215;28;20213;-69
2023/05/09 03:19:00;;;;;;;15.27;13.87;;;;;;;13.98;100.00;101539.31;5017622;28;20453;-68
2023/05/09 03:21:26;;;;;;;14.97;13.47;;;;;;;13.79;100.00;101509.38;5018236;28;20184;-68
2023/05/09 03:23:51;;;;;;;14.80;13.50;;;;;;;14.00;100.00;101537.22;5023946;28;20197;-69
2023/05/09 03:26:17;;;;;;;13.90;12.70;;;;;;;14.01;100.00;101531.63;5017571;28;20220;-69
2023/05/09 03:28:42;;;;;;;12.67;11.57;;;;;;;14.03;100.00;101512.56;5019907;28;20188;-69
2023/05/09 03:31:08;;;;;;;13.23;12.03;;;;;;;13.41;100.00;101432.78;5020338;28;20251;-68
2023/05/09 03:33:34;;;;;;;14.03;12.73;;;;;;;13.77;100.00;101497.16;5019434;28;20217;-68
2023/05/09 03:35:59;;;;;;;13.60;12.30;;;;;;;13.57;100.00;101470.97;5019420;28;20567;-69
2023/05/09 03:38:25;;;;;;;13.20;11.97;;;;;;;13.88;100.00;101490.31;5019002;28;20189;-69
2023/05/09 03:40:52;;;;;;;14.00;12.60;;;;;;;13.58;100.00;101458.31;5020707;28;20272;-69
2023/05/09 03:43:18;;;;;;;13.27;11.93;;;;;;;13.84;100.00;101507.94;5024947;28;20298;-69
2023/05/09 03:45:43;;;;;;;12.20;11.10;;;;;;;13.89;100.00;101482.03;5021714;28;20531;-69
2023/05/09 03:48:10;;;;;;;11.80;10.80;;;;;;;13.80;100.00;101472.47;5022572;28;20334;-69
2023/05/09 03:50:35;;;;;;;11.60;10.60;;;;;;;13.86;100.00;101463.56;5025224;28;20197;-69
2023/05/09 03:53:01;;;;;;;11.77;10.67;;;;;;;13.91;100.00;101482.63;5021506;28;20430;-69
2023/05/09 03:55:27;;;;;;;11.47;10.47;;;;;;;13.82;100.00;101470.38;5022828;28;20263;-69
2023/05/09 03:57:53;;;;;;;12.07;11.03;;;;;;;13.73;100.00;101485.91;5023393;28;20647;-69
2023/05/09 04:00:20;;;;;;;12.20;11.07;;;;;;;13.75;100.00;101475.78;5023673;28;20200;-69
2023/05/09 04:02:45;;;;;;;11.53;10.43;;;;;;;13.65;100.00;101478.00;5023071;28;20440;-69
2023/05/09 04:05:11;;;;;;;12.40;11.10;;;;;;;13.71;100.00;101469.13;5022359;28;20428;-69
2023/05/09 04:07:36;;;;;;;11.40;10.40;;;;;;;13.70;100.00;101464.75;5026590;28;20254;-69
2023/05/09 04:10:02;;;;;;;12.20;10.90;;;;;;;13.71;100.00;101462.88;5021272;28;20192;-69
2023/05/09 04:12:27;;;;;;;12.60;11.40;;;;;;;13.55;100.00;101472.19;5023418;28;20259;-69
2023/05/09 04:14:53;;;;;;;11.13;10.13;;;;;;;13.61;100.00;101470.56;5022116;28;20185;-69
2023/05/09 04:17:18;;;;;;;11.03;10.03;;;;;;;13.60;100.00;101445.47;5022659;28;20212;-69
2023/05/09 04:19:44;;;;;;;11.83;10.73;;;;;;;13.66;100.00;101441.13;5021605;28;20629;-69
2023/05/09 04:22:09;;;;;;;11.73;10.63;;;;;;;13.47;100.00;101440.88;5019458;28;20256;-68
2023/05/09 04:24:35;;;;;;;12.47;11.37;;;;;;;13.67;100.00;101446.31;5018625;28;20555;-69
2023/05/09 04:27:01;;;;;;;11.27;10.27;;;;;;;13.48;100.00;101399.44;5017803;28;20214;-69
2023/05/09 04:29:26;;;;;;;11.73;10.63;;;;;;;13.83;100.00;101446.94;5021941;28;20192;-69
2023/05/09 04:31:52;;;;;;;11.13;10.03;;;;;;;13.91;100.00;101450.28;5020340;28;20603;-69
2023/05/09 04:34:18;;;;;;;10.80;9.80;;;;;;;13.78;100.00;101426.84;5021433;28;20200;-69
2023/05/09 04:36:43;;;;;;;11.07;10.03;;;;;;;13.89;100.00;101446.97;5020712;28;20936;-68
2023/05/09 04:39:09;;;;;;;10.77;9.77;;;;;;;13.76;100.00;101445.06;5021175;28;20616;-68
2023/05/09 04:41:35;;;;;;;11.20;10.20;;;;;;;13.78;100.00;101436.78;5021407;28;20183;-69
2023/05/09 04:44:00;;;;;;;10.60;9.60;;;;;;;13.69;100.00;101419.97;5023247;28;20439;-69
2023/05/09 04:46:26;;;;;;;10.07;9.07;;;;;;;13.89;100.00;101446.16;5019386;28;20847;-68
2023/05/09 04:48:52;;;;;;;10.90;9.90;;;;;;;13.89;100.00;101432.66;5020904;28;20243;-68
2023/05/09 04:51:17;;;;;;;11.20;9.87;;;;;;;13.89;100.00;101429.97;5018357;28;20689;-69
2023/05/09 04:53:43;;;;;;;10.10;9.10;;;;;;;13.82;100.00;101427.25;5019794;28;20642;-69
2023/05/09 04:56:09;;;;;;;10.53;9.50;;;;;;;13.82;100.00;101431.81;5018027;28;20235;-69
2023/05/09 04:58:37;;;;;;;10.20;9.20;;;;;;;13.82;100.00;101426.41;5018933;28;20453;-69
2023/05/09 05:01:04;;;;;;;10.73;9.77;;;;;;;13.85;100.00;101431.41;5016817;28;20204;-70
2023/05/09 05:03:29;;;;;;;10.13;9.23;;;;;;;13.65;100.00;101380.97;5018376;28;20477;-70
2023/05/09 05:05:55;;;;;;;10.43;9.43;;;;;;;13.90;100.00;101418.13;5014556;28;20466;-68
2023/05/09 05:08:20;;;;;;;9.70;8.80;;;;;;;13.74;100.00;101408.56;5017916;28;20212;-69
2023/05/09 05:10:47;;;;;;;10.10;9.20;;;;;;;13.99;100.00;101422.28;5015998;28;20193;-69
2023/05/09 05:13:13;;;;;;;9.53;8.63;;;;;;;13.82;100.00;101391.38;5016914;28;20184;-69
2023/05/09 05:15:38;;;;;;;9.50;8.60;;;;;;;13.90;100.00;101412.75;5016262;28;20490;-68
2023/05/09 05:18:04;;;;;;;9.77;8.87;;;;;;;13.85;100.00;101409.81;5015756;28;20272;-68
2023/05/09 05:20:29;;;;;;;9.53;8.73;;;;;;;13.90;100.00;101402.78;5018296;28;20189;-69
2023/05/09 05:22:55;;;;;;;11.83;9.20;;;;;;;13.99;100.00;101403.41;5018917;28;20214;-69
2023/05/09 05:25:21;;;;;;;9.27;8.47;;;;;;;13.57;100.00;101348.84;5016522;28;20921;-68
2023/05/09 05:27:46;;;;;;;10.00;9.10;;;;;;;13.89;100.00;101367.94;5018750;28;20628;-69
2023/05/09 05:30:14;;;;;;;8.90;8.00;;;;;;;14.02;100.00;101382.22;5017942;28;20481;-69
2023/05/09 05:32:40;;;;;;;9.90;8.90;;;;;;;13.64;100.00;101338.06;5020009;28;20230;-69
2023/05/09 05:35:06;;;;;;;9.20;8.40;;;;;;;13.89;100.00;101381.44;5017865;28;20443;-69
2023/05/09 05:37:31;;;;;;;9.83;8.93;;;;;;;13.78;100.00;101355.91;5016247;28;20471;-69
2023/05/09 05:39:56;;;;;;;9.73;8.83;;;;;;;13.87;100.00;101356.53;5021309;28;20189;-70
2023/05/09 05:42:22;;;;;;;10.67;9.77;;;;;;;14.12;100.00;101372.91;5020038;28;20635;-69
2023/05/09 05:44:47;;;;;;;9.70;8.80;;;;;;;14.16;100.00;101358.78;5022158;28;20192;-69
2023/05/09 05:47:13;;;;;;;9.27;8.47;;;;;;;13.69;100.00;101301.38;5019268;28;20200;-69
2023/05/09 05:49:38;;;;;;;9.80;8.90;;;;;;;14.08;100.00;101360.88;5021567;28;20821;-70
2023/05/09 05:52:03;;;;;;;9.87;8.97;;;;;;;14.20;100.00;101359.19;5019204;28;20211;-69
2023/05/09 05:54:29;;;;;;;9.80;8.73;;;;;;;14.12;100.00;101352.16;5017314;28;20196;-69
2023/05/09 05:56:55;;;;;;;11.20;10.03;;;;;;;13.93;100.00;101347.59;5018965;28;20216;-69
2023/05/09 05:59:20;;;;;;;9.90;9.10;;;;;;;14.07;100.00;101341.16;5018790;28;20243;-69
2023/05/09 06:01:45;;;;;;;10.27;9.27;;;;;;;14.20;100.00;101335.75;5021644;28;20189;-69
2023/05/09 06:04:11;;;;;;;10.60;9.60;;;;;;;14.05;100.00;101324.34;5019177;28;20189;-69
2023/05/09 06:06:36;;;;;;;9.50;8.60;;;;;;;14.31;100.00;101334.25;5018965;28;20213;-69
2023/05/09 06:09:02;;;;;;;9.20;8.40;;;;;;;14.38;100.00;101323.47;5020186;28;20201;-70
2023/05/09 06:11:27;;;;;;;13.43;10.53;;;;;;;13.97;100.00;101267.91;5012503;28;20300;-69
2023/05/09 06:13:53;;;;;;;10.63;9.60;;;;;;;14.00;100.00;101298.03;5018595;28;20192;-69
2023/05/09 06:16:19;;;;;;;11.50;10.30;;;;;;;14.02;100.00;101293.22;5019492;28;20508;-69
2023/05/09 06:18:45;;;;;;;10.80;9.80;;;;;;;13.93;100.00;101254.03;5019088;28;20188;-69
2023/05/09 06:21:10;;;;;;;10.70;9.70;;;;;;;14.27;100.00;101310.63;5018978;28;20430;-69
2023/05/09 06:23:36;;;;;;;11.83;10.67;;;;;;;14.26;100.00;101315.16;5021094;28;20189;-69
2023/05/09 06:26:04;;;;;;;11.73;9.37;;;;;;;14.22;100.00;101312.06;5020020;28;20207;-70
2023/05/09 06:28:30;;;;;;;10.77;9.67;;;;;;;14.29;100.00;101308.53;5023881;28;20189;-71
2023/05/09 06:30:55;;;;;;;11.13;9.77;;;;;;;14.51;100.00;101301.81;5019067;28;20526;-69
2023/05/09 06:33:20;;;;;;;11.30;10.20;;;;;;;14.29;100.00;101235.66;5020405;28;20192;-69
2023/05/09 06:35:46;;;;;;;10.97;9.97;;;;;;;14.57;100.00;101278.56;5033549;28;20200;-69
2023/05/09 06:38:11;;;;;;;11.57;10.33;;;;;;;14.51;100.00;101272.13;5020730;28;20189;-69
2023/05/09 06:40:37;;;;;;;9.87;8.87;;;;;;;14.24;100.00;101231.75;5020609;28;20230;-69
2023/05/09 06:43:02;;;;;;;13.00;11.00;;;;;;;14.48;100.00;101269.84;5019068;28;20188;-69
2023/05/09 06:45:29;;;;;;;11.87;10.67;;;;;;;14.54;100.00;101262.81;5022725;28;20188;-69
2023/05/09 06:47:54;;;;;;;10.17;9.20;;;;;;;14.47;100.00;101244.72;5023012;28;20184;-68
2023/05/09 06:50:20;;;;;;;13.90;10.37;;;;;;;14.60;100.00;101265.47;5018829;28;20957;-69
2023/05/09 06:52:45;;;;;;;11.03;10.03;;;;;;;14.71;100.00;101252.34;5018361;28;20257;-68
2023/05/09 06:55:11;;;;;;;10.80;9.80;;;;;;;14.48;100.00;101237.47;5019754;28;20572;-69
2023/05/09 06:57:38;;;;;;;10.97;9.97;;;;;;;14.53;100.00;101226.06;5019843;28;20212;-69
2023/05/09 07:00:05;;;;;;;13.30;10.90;;;;;;;14.57;100.00;101238.06;5018882;28;20211;-69
2023/05/09 07:02:30;;;;;;;9.60;8.80;;;;;;;14.65;100.00;101235.94;5019428;28;20420;-69
2023/05/09 07:04:56;;;;;;;9.47;8.57;;;;;;;14.76;100.00;101228.22;5019050;28;20435;-69
2023/05/09 07:07:21;;;;;;;11.33;10.27;;;;;;;14.54;100.00;101227.72;5017523;28;20217;-69
2023/05/09 07:09:47;;;;;;;11.03;10.07;;;;;;;14.42;100.00;101193.25;5018953;28;20182;-69
2023/05/09 07:12:12;;;;;;;10.57;9.63;;;;;;;14.66;100.00;101232.19;5019303;28;20200;-69
2023/05/09 07:14:37;;;;;;;10.87;9.87;;;;;;;14.39;100.00;101200.97;5021619;28;20185;-68
2023/05/09 07:17:03;;;;;;;11.27;10.17;;;;;;;14.47;100.00;101196.16;5025011;28;20700;-69
2023/05/09 07:19:28;;;;;;;10.70;9.27;;;;;;;14.72;100.00;101181.91;5021788;28;20194;-69
2023/05/09 07:21:54;;;;;;;11.53;10.33;;;;;;;14.66;100.00;101218.69;5022667;28;20669;-69
2023/05/09 07:24:20;;;;;;;10.33;9.43;;;;;;;14.71;100.00;101226.16;5024760;28;20188;-69
2023/05/09 07:26:45;;;;;;;10.00;9.10;;;;;;;14.94;100.00;101213.97;5022587;28;20211;-69
2023/05/09 07:29:11;;;;;;;12.73;9.93;;;;;;;14.80;100.00;101189.75;5021649;28;20192;-69
2023/05/09 07:31:36;;;;;;;12.77;11.57;;;;;;;14.78;100.00;101201.81;5025218;28;20208;-69
2023/05/09 07:34:01;;;;;;;11.20;10.10;;;;;;;14.94;100.00;101201.28;5023802;28;20198;-69
2023/05/09 07:36:27;;;;;;;11.60;10.47;;;;;;;14.96;100.00;101199.22;5022919;28;20213;-69
2023/05/09 07:38:53;;;;;;;11.07;9.97;;;;;;;15.09;100.00;101193.69;5021963;28;20288;-69
2023/05/09 07:41:18;;;;;;;11.10;9.80;;;;;;;14.91;100.00;101166.63;5022869;28;20181;-69
2023/05/09 07:43:44;;;;;;;10.93;9.83;;;;;;;15.27;100.00;101182.09;5020842;28;20434;-69
2023/05/09 07:46:10;;;;;;;12.60;11.40;;;;;;;15.32;100.00;101186.84;5021385;28;20212;-69
2023/05/09 07:48:35;;;;;;;13.90;12.50;;;;;;;15.35;100.00;101186.41;5023166;28;20200;-69
2023/05/09 07:51:01;;;;;;;13.10;11.80;;;;;;;15.34;100.00;101165.84;5022139;28;20286;-69
2023/05/09 07:53:26;;;;;;;12.97;11.77;;;;;;;15.45;100.00;101172.38;5022827;28;20188;-69
2023/05/09 07:55:51;;;;;;;13.20;11.60;;;;;;;15.33;100.00;101139.84;5021191;28;20216;-69
2023/05/09 07:58:17;;;;;;;13.13;11.60;;;;;;;15.33;100.00;101127.19;5022781;28;20662;-69
2023/05/09 08:00:42;;;;;;;12.40;11.20;;;;;;;15.69;100.00;101149.09;5022142;28;20216;-69
2023/05/09 08:03:08;;;;;;;12.83;11.53;;;;;;;15.70;100.00;101145.31;5024229;28;20238;-69
2023/05/09 08:05:33;;;;;;;13.53;12.23;;;;;;;15.31;100.00;101074.41;5022617;28;20270;-69
2023/05/09 08:07:59;;;;;;;19.50;13.20;;;;;;;15.63;100.00;101141.84;5022414;28;20200;-69
2023/05/09 08:10:25;;;;;;;14.17;12.87;;;;;;;15.46;100.00;101110.00;5022267;28;20227;-69
2023/05/09 08:12:51;;;;;;;13.73;11.77;;;;;;;15.57;100.00;101130.06;5021093;28;20213;-69
2023/05/09 08:15:16;;;;;;;13.13;11.80;;;;;;;15.70;100.00;101131.81;5024356;28;20847;-69
2023/05/09 08:17:42;;;;;;;14.90;13.50;;;;;;;15.71;100.00;101128.91;5023127;28;20274;-69
2023/05/09 08:20:08;;;;;;;15.20;13.70;;;;;;;15.68;100.00;101136.59;5021322;28;20219;-69
2023/05/09 08:22:33;;;;;;;14.37;13.07;;;;;;;15.72;100.00;101114.31;5023900;28;20216;-69
2023/05/09 08:24:59;;;;;;;15.27;13.50;;;;;;;15.90;100.00;101110.75;5023578;28;20188;-69
2023/05/09 08:27:25;;;;;;;15.57;14.07;;;;;;;15.76;100.00;101091.16;5020553;28;20654;-69
2023/05/09 08:29:50;;;;;;;14.13;12.83;;;;;;;15.36;100.00;101028.59;5020888;28;20243;-69
2023/05/09 08:32:16;;;;;;;15.83;14.23;;;;;;;15.95;100.00;101104.69;5024883;28;21060;-69
2023/05/09 08:34:41;;;;;;;14.37;12.87;;;;;;;16.04;100.00;101092.47;5020387;28;20216;-69
2023/05/09 08:37:07;;;;;;;17.10;15.30;;;;;;;15.90;100.00;101105.34;5019874;28;20268;-69
2023/05/09 08:39:34;;;;;;;16.83;14.90;;;;;;;15.89;100.00;101092.88;5021415;28;20214;-69
2023/05/09 08:42:01;;;;;;;18.40;16.50;;;;;;;15.84;100.00;101090.03;5020787;28;20629;-69
2023/05/09 08:44:28;;;;;;;15.27;13.80;;;;;;;15.75;100.00;101083.28;5021886;28;20494;-69
2023/05/09 08:47:02;;;;;;;20.17;16.47;;;;;;;15.97;100.00;101113.41;5012025;28;20471;-69
2023/05/09 08:49:28;;;;;;;19.40;17.50;;;;;;;15.80;100.00;101094.25;5018833;28;20444;-69
2023/05/09 08:51:54;;;;;;;19.27;17.27;;;;;;;15.74;100.00;101095.97;5024334;28;20522;-69
2023/05/09 08:54:21;;;;;;;19.73;17.67;;;;;;;15.92;100.00;101118.66;5018557;28;20531;-69
2023/05/09 08:56:47;;;;;;;26.37;21.70;;;;;;;15.82;100.00;101117.31;5020857;28;20458;-69
2023/05/09 08:59:13;;;;;;;26.63;19.13;;;;;;;15.86;100.00;101133.09;5019824;28;20424;-70
2023/05/09 09:01:40;;;;;;;21.50;19.23;;;;;;;15.64;100.00;101097.53;5020663;28;20187;-69
2023/05/09 09:04:07;;;;;;;20.70;18.50;;;;;;;15.69;100.00;101120.16;5020565;28;20478;-71
2023/05/09 09:06:33;;;;;;;22.30;18.53;;;;;;;15.78;100.00;101118.00;5022413;28;20456;-69
2023/05/09 09:08:59;;;;;;;21.73;17.23;;;;;;;15.76;100.00;101137.13;5020036;28;20534;-69
2023/05/09 09:11:27;;;;;;;21.93;18.73;;;;;;;15.74;100.00;101143.84;5019821;28;20482;-68
2023/05/09 09:13:54;;;;;;;18.30;16.40;;;;;;;15.68;100.00;101144.72;5021209;28;20434;-68
2023/05/09 09:16:25;;;;;;;32.50;19.93;;;;;;;15.54;100.00;101134.03;5019914;28;20496;-70
2023/05/09 09:18:53;;;;;;;25.23;20.00;;;;;;;15.71;100.00;101158.63;5020233;28;20917;-69
2023/05/09 09:21:19;;;;;;;21.53;17.70;;;;;;;15.75;100.00;101161.72;5020417;28;20452;-68
2023/05/09 09:23:46;;;;;;;22.50;20.07;;;;;;;15.66;100.00;101169.25;5019670;28;20419;-68
2023/05/09 09:26:13;;;;;;;19.93;17.33;;;;;;;15.75;100.00;101172.53;5019869;28;20444;-70
2023/05/09 09:28:38;;;;;;;18.23;16.33;;;;;;;15.43;100.00;101128.53;5020412;28;20418;-70
2023/05/09 09:31:24;;;;;;;22.97;20.43;;;;;;;15.67;100.00;101170.91;5019035;28;20475;-70
2023/05/09 09:33:50;;;;;;;26.30;21.20;;;;;;;15.72;100.00;101179.22;5019894;28;20188;-68
2023/05/09 09:36:24;;;;;;;27.90;22.90;;;;;;;15.60;100.00;101170.16;5019088;28;20462;-68
2023/05/09 09:38:55;;;;;;;27.60;22.93;;;;;;;15.63;100.00;101163.47;5019168;28;20432;-68
2023/05/09 09:41:21;;;;;;;24.43;19.60;;;;;;;15.64;100.00;101174.06;5019551;28;20470;-68
2023/05/09 09:43:46;;;;;;;27.70;21.70;;;;;;;14.49;100.00;101009.69;5019735;28;20925;-69
2023/05/09 09:46:13;;;;;;;30.37;23.33;;;;;;;15.23;100.00;101113.34;5020932;28;20450;-69
2023/05/09 09:48:38;;;;;;;35.50;25.50;;;;;;;15.55;100.00;101162.72;5019714;28;20267;-69
2023/05/09 09:51:11;;;;;;;30.03;23.70;;;;;;;15.64;100.00;101165.94;5019475;28;20974;-69
2023/05/09 09:53:40;;;;;;;27.30;23.13;;;;;;;15.65;100.00;101161.38;5019739;28;20561;-69
2023/05/09 09:56:06;;;;;;;29.73;24.80;;;;;;;15.73;100.00;101161.94;5017777;28;20462;-69
2023/05/09 09:58:32;;;;;;;41.37;29.37;;;;;;;15.52;100.00;101148.81;5019097;28;21741;-69
2023/05/09 10:01:19;;;;;;;36.70;27.57;;;;;;;15.75;100.00;101169.81;5020136;28;20472;-69
2023/05/09 10:03:45;;;;;;;37.47;28.90;;;;;;;15.62;100.00;101167.22;5019140;28;20203;-69
2023/05/09 10:06:12;;;;;;;43.27;28.57;;;;;;;15.73;100.00;101172.75;5018802;28;20444;-69
2023/05/09 10:08:38;;;;;;;33.50;25.47;;;;;;;15.82;100.00;101179.53;5024196;28;20188;-69
2023/05/09 10:11:04;;;;;;;39.30;28.90;;;;;;;15.60;100.00;101157.47;5019816;28;20438;-69
2023/05/09 10:13:32;;;;;;;35.83;28.07;;;;;;;15.80;100.00;101178.91;5018096;28;20431;-69
2023/05/09 10:15:58;;;;;;;34.40;28.17;;;;;;;15.80;100.00;101178.09;5020097;28;20196;-69
2023/05/09 10:18:27;;;;;;;30.00;24.07;;;;;;;15.96;100.00;101176.66;5019554;28;20489;-69
2023/05/09 10:20:53;;;;;;;50.87;34.20;;;;;;;15.79;100.00;101165.59;5019779;28;20912;-69
2023/05/09 10:23:20;;;;;;;40.13;28.97;;;;;;;15.97;100.00;101164.81;5019574;28;20426;-68
2023/05/09 10:25:57;;;;;;;34.37;26.40;;;;;;;16.04;100.00;101160.94;5016356;28;20961;-69
2023/05/09 10:28:30;;;;;;;57.20;36.50;;;;;;;15.86;100.00;101135.81;5019447;28;20418;-69
2023/05/09 10:31:21;;;;;;;48.20;30.73;;;;;;;16.19;100.00;101163.25;5021553;28;20936;-69
2023/05/09 10:33:49;;;;;;;50.63;32.07;;;;;;;16.17;100.00;101162.66;5019624;28;20428;-68
2023/05/09 10:36:19;;;;;;;54.50;35.00;;;;;;;16.02;100.00;101148.69;5017658;28;20451;-68
2023/05/09 10:38:47;;;;;;;47.97;32.33;;;;;;;16.14;100.00;101149.59;5016832;28;20831;-68
2023/05/09 10:41:14;;;;;;;54.00;35.50;;;;;;;16.11;100.00;101131.09;5019967;28;20423;-68
2023/05/09 10:43:41;;;;;;;44.60;29.77;;;;;;;16.20;100.00;101132.44;5018695;28;20443;-68
2023/05/09 10:46:08;;;;;;;44.13;30.93;;;;;;;16.23;100.00;101126.56;5018554;28;20891;-68
2023/05/09 10:48:35;;;;;;;48.23;33.63;;;;;;;15.95;100.00;101086.56;5020895;28;20469;-68
2023/05/09 10:51:01;;;;;;;50.90;35.10;;;;;;;16.16;100.00;101115.00;5027294;28;20913;-68
2023/05/09 10:53:41;;;;;;;51.23;33.47;;;;;;;16.11;100.00;101095.09;5023566;28;20561;-68
2023/05/09 10:56:06;;;;;;;44.80;31.33;;;;;;;16.22;100.00;101094.31;5021499;28;20442;-68
2023/05/09 10:58:35;;;;;;;40.00;28.27;;;;;;;16.21;100.00;101095.38;5022659;28;20431;-68
2023/05/09 11:01:02;;;;;;;38.57;28.97;;;;;;;16.11;100.00;101085.09;5020778;28;20189;-68
2023/05/09 11:03:48;;;;;;;35.43;27.63;;;;;;;16.14;100.00;101090.06;5036909;28;20984;-68